createdAt,value
2022-08-30T00:01:26.681Z,10.20
2022-08-30T00:03:56.107Z,10.40
2022-08-30T00:06:29.152Z,10.34
2022-08-30T00:09:00.999Z,10.35
2022-08-30T00:11:30.295Z,10.28
2022-08-30T00:13:59.954Z,10.24
2022-08-30T00:16:28.249Z,10.30
2022-08-30T00:18:56.391Z,10.30
2022-08-30T00:21:24.431Z,10.26
2022-08-30T00:23:52.700Z,10.30
2022-08-30T00:26:22.150Z,10.24
2022-08-30T00:28:50.017Z,10.27
2022-08-30T00:31:18.416Z,10.18
2022-08-30T00:33:46.494Z,10.26
2022-08-30T00:36:14.421Z,10.23
2022-08-30T00:38:42.714Z,10.28
2022-08-30T00:41:11.808Z,10.12
2022-08-30T00:43:43.499Z,10.26
2022-08-30T00:46:13.184Z,10.29
2022-08-30T00:48:46.308Z,10.42
2022-08-30T00:51:16.463Z,10.21
2022-08-30T00:53:49.524Z,10.28
2022-08-30T00:56:19.191Z,10.15
2022-08-30T00:58:53.302Z,10.10
2022-08-30T01:01:21.918Z,10.27
2022-08-30T01:03:50.336Z,10.24
2022-08-30T01:06:19.048Z,10.21
2022-08-30T01:08:48.086Z,10.22
2022-08-30T01:11:19.923Z,10.18
2022-08-30T01:13:51.079Z,10.18
2022-08-30T01:16:19.578Z,10.18
2022-08-30T01:18:52.762Z,10.22
2022-08-30T01:21:28.661Z,10.15
2022-08-30T01:24:03.033Z,10.17
2022-08-30T01:26:32.663Z,10.13
2022-08-30T01:29:05.332Z,10.09
2022-08-30T01:31:37.093Z,10.07
2022-08-30T01:34:07.764Z,10.05
2022-08-30T01:36:36.961Z,10.07
2022-08-30T01:39:06.766Z,9.97
2022-08-30T01:41:36.470Z,9.99
2022-08-30T01:44:07.593Z,10.03
2022-08-30T01:46:38.602Z,10.03
2022-08-30T01:49:09.076Z,9.86
2022-08-30T01:51:37.624Z,10.02
2022-08-30T01:54:07.664Z,9.99
2022-08-30T01:56:36.217Z,10.05
2022-08-30T01:59:04.564Z,10.00
2022-08-30T02:01:35.725Z,10.04
2022-08-30T02:04:05.557Z,10.04
2022-08-30T02:06:33.977Z,10.12
2022-08-30T02:09:02.680Z,10.01
2022-08-30T02:11:32.150Z,9.91
2022-08-30T02:14:00.197Z,10.03
2022-08-30T02:16:30.735Z,9.96
2022-08-30T02:18:58.828Z,10.05
2022-08-30T02:21:27.737Z,10.00
2022-08-30T02:23:56.088Z,9.94
2022-08-30T02:26:24.608Z,10.06
2022-08-30T02:28:56.439Z,10.04
2022-08-30T02:31:27.449Z,9.87
2022-08-30T02:33:55.640Z,10.09
2022-08-30T02:36:25.919Z,10.14
2022-08-30T02:38:54.736Z,10.01
2022-08-30T02:41:24.255Z,10.09
2022-08-30T02:43:58.471Z,9.99
2022-08-30T02:46:27.085Z,9.88
2022-08-30T02:49:05.636Z,10.07
2022-08-30T02:51:43.777Z,9.98
2022-08-30T02:54:15.716Z,10.06
2022-08-30T02:56:43.732Z,10.04
2022-08-30T02:59:13.142Z,10.02
2022-08-30T03:01:41.056Z,10.03
2022-08-30T03:04:09.933Z,10.00
2022-08-30T03:06:38.951Z,10.04
2022-08-30T03:09:07.033Z,10.10
2022-08-30T03:11:35.158Z,9.98
2022-08-30T03:14:03.195Z,10.02
2022-08-30T03:16:33.754Z,9.94
2022-08-30T03:19:01.708Z,9.83
2022-08-30T03:21:29.704Z,9.87
2022-08-30T03:23:57.578Z,9.92
2022-08-30T03:26:25.540Z,9.90
2022-08-30T03:28:53.598Z,9.97
2022-08-30T03:31:21.988Z,9.86
2022-08-30T03:33:52.000Z,9.92
2022-08-30T03:36:20.152Z,9.93
2022-08-30T03:38:48.587Z,10.08
2022-08-30T03:41:17.245Z,10.02
2022-08-30T03:43:46.814Z,10.00
2022-08-30T03:46:15.961Z,9.96
2022-08-30T03:48:47.071Z,9.94
2022-08-30T03:51:18.105Z,9.71
2022-08-30T03:53:46.183Z,9.88
2022-08-30T03:56:17.425Z,10.01
2022-08-30T03:58:45.857Z,10.10
2022-08-30T04:01:13.910Z,10.08
2022-08-30T04:03:41.798Z,9.84
2022-08-30T04:06:09.731Z,9.97
2022-08-30T04:08:40.557Z,10.02
2022-08-30T04:11:08.685Z,9.94
2022-08-30T04:13:36.680Z,9.69
2022-08-30T04:16:05.163Z,9.99
2022-08-30T04:18:33.098Z,9.90
2022-08-30T04:21:01.134Z,9.96
2022-08-30T04:23:29.128Z,9.99
2022-08-30T04:25:59.493Z,9.99
2022-08-30T04:28:27.571Z,10.08
2022-08-30T04:30:55.678Z,10.14
2022-08-30T04:33:23.659Z,10.11
2022-08-30T04:35:54.738Z,9.99
2022-08-30T04:38:25.555Z,10.15
2022-08-30T04:40:58.099Z,10.22
2022-08-30T04:43:26.771Z,10.21
2022-08-30T04:45:55.511Z,10.23
2022-08-30T04:48:23.967Z,10.31
2022-08-30T04:50:52.390Z,10.45
2022-08-30T04:53:20.418Z,10.35
2022-08-30T04:55:48.708Z,10.54
2022-08-30T04:58:19.524Z,10.40
2022-08-30T05:00:50.953Z,10.30
2022-08-30T05:03:19.164Z,10.63
2022-08-30T05:05:49.159Z,10.73
2022-08-30T05:08:24.617Z,10.80
2022-08-30T05:10:53.762Z,10.80
2022-08-30T05:13:35.029Z,10.83
2022-08-30T05:16:05.514Z,10.94
2022-08-30T05:18:33.965Z,10.88
2022-08-30T05:21:07.603Z,11.19
2022-08-30T05:23:37.187Z,11.30
2022-08-30T05:26:07.654Z,11.36
2022-08-30T05:28:37.494Z,11.44
2022-08-30T05:31:14.746Z,11.84
2022-08-30T05:33:43.073Z,12.02
2022-08-30T05:36:13.253Z,12.51
2022-08-30T05:38:42.792Z,12.90
2022-08-30T05:41:12.757Z,13.27
2022-08-30T05:43:42.509Z,13.71
2022-08-30T05:46:14.799Z,14.09
2022-08-30T05:48:42.888Z,14.51
2022-08-30T05:51:13.170Z,14.84
2022-08-30T05:53:42.186Z,15.23
2022-08-30T05:56:12.257Z,15.26
2022-08-30T05:58:41.952Z,15.50
2022-08-30T06:01:23.750Z,15.48
2022-08-30T06:03:52.463Z,15.66
2022-08-30T06:06:20.472Z,15.75
2022-08-30T06:08:49.183Z,15.73
2022-08-30T06:11:20.311Z,15.87
2022-08-30T06:13:50.670Z,15.98
2022-08-30T06:16:20.798Z,16.14
2022-08-30T06:18:49.848Z,16.17
2022-08-30T06:21:18.934Z,16.21
2022-08-30T06:23:47.086Z,16.12
2022-08-30T06:26:17.145Z,16.33
2022-08-30T06:28:45.524Z,16.33
2022-08-30T06:31:16.346Z,16.28
2022-08-30T06:33:45.264Z,16.28
2022-08-30T06:36:16.827Z,16.31
2022-08-30T06:38:45.312Z,16.36
2022-08-30T06:41:15.402Z,16.41
2022-08-30T06:43:48.650Z,16.51
2022-08-30T06:46:21.675Z,16.43
2022-08-30T06:48:49.876Z,16.58
2022-08-30T06:51:21.878Z,16.72
2022-08-30T06:53:50.794Z,16.88
2022-08-30T06:56:20.254Z,16.94
2022-08-30T06:58:49.726Z,16.98
2022-08-30T07:01:22.081Z,17.04
2022-08-30T07:03:50.305Z,17.17
2022-08-30T07:06:19.088Z,17.18
2022-08-30T07:08:48.096Z,17.28
2022-08-30T07:11:16.543Z,17.29
2022-08-30T07:13:45.963Z,17.67
2022-08-30T07:16:15.195Z,17.74
2022-08-30T07:18:54.974Z,17.91
2022-08-30T07:21:26.663Z,17.97
2022-08-30T07:23:56.117Z,18.13
2022-08-30T07:26:26.687Z,18.12
2022-08-30T07:28:56.233Z,17.99
2022-08-30T07:31:25.518Z,17.99
2022-08-30T07:33:55.739Z,17.97
2022-08-30T07:36:24.517Z,17.97
2022-08-30T07:38:54.551Z,18.10
2022-08-30T07:41:25.570Z,18.40
2022-08-30T07:43:53.799Z,18.73
2022-08-30T07:46:23.217Z,18.75
2022-08-30T07:48:51.715Z,18.79
2022-08-30T07:51:23.873Z,19.02
2022-08-30T07:53:52.588Z,19.40
2022-08-30T07:56:20.896Z,19.40
2022-08-30T07:58:48.935Z,19.53
2022-08-30T08:01:18.805Z,19.57
2022-08-30T08:03:48.012Z,19.58
2022-08-30T08:06:18.292Z,19.57
2022-08-30T08:08:47.846Z,19.54
2022-08-30T08:11:19.390Z,19.39
2022-08-30T08:13:54.129Z,19.45
2022-08-30T08:16:24.248Z,19.69
2022-08-30T08:18:53.086Z,19.70
2022-08-30T08:21:23.399Z,20.13
2022-08-30T08:23:53.053Z,20.63
2022-08-30T08:26:21.733Z,21.10
2022-08-30T08:28:50.179Z,21.26
2022-08-30T08:31:19.872Z,21.38
2022-08-30T08:33:49.582Z,21.75
2022-08-30T08:36:18.592Z,22.16
2022-08-30T08:38:46.677Z,22.06
2022-08-30T08:41:29.462Z,21.64
2022-08-30T08:43:57.464Z,21.38
2022-08-30T08:46:29.605Z,20.95
2022-08-30T08:49:02.821Z,20.14
2022-08-30T08:52:01.021Z,19.63
2022-08-30T08:54:37.570Z,19.82
2022-08-30T08:57:07.220Z,20.09
2022-08-30T08:59:35.276Z,20.45
2022-08-30T09:02:24.101Z,20.89
2022-08-30T09:04:55.509Z,21.25
2022-08-30T09:07:29.742Z,21.54
2022-08-30T09:10:00.617Z,21.85
2022-08-30T09:12:30.190Z,22.13
2022-08-30T09:15:03.818Z,22.62
2022-08-30T09:17:50.959Z,23.00
2022-08-30T09:20:28.445Z,22.60
2022-08-30T09:22:57.025Z,22.36
2022-08-30T09:25:29.954Z,21.91
2022-08-30T09:28:12.541Z,21.29
2022-08-30T09:30:41.185Z,20.75
2022-08-30T09:33:20.548Z,20.75
2022-08-30T09:35:52.080Z,21.34
2022-08-30T09:38:24.674Z,22.26
2022-08-30T09:40:54.856Z,23.20
2022-08-30T09:43:28.423Z,23.90
2022-08-30T09:46:11.296Z,24.59
2022-08-30T09:48:47.693Z,24.90
2022-08-30T09:51:38.616Z,25.66
2022-08-30T09:54:18.383Z,26.78
2022-08-30T09:56:57.989Z,27.83
2022-08-30T09:59:42.461Z,28.08
2022-08-30T10:02:29.228Z,27.51
2022-08-30T10:05:07.119Z,26.16
2022-08-30T10:07:43.871Z,25.05
2022-08-30T10:10:18.966Z,24.13
2022-08-30T10:13:02.678Z,24.85
2022-08-30T10:15:36.532Z,25.75
2022-08-30T10:18:18.303Z,27.16
2022-08-30T10:20:54.835Z,27.89
2022-08-30T10:23:28.226Z,28.38
2022-08-30T10:26:01.318Z,29.66
2022-08-30T10:28:35.922Z,30.50
2022-08-30T10:31:11.134Z,30.53
2022-08-30T10:33:42.544Z,30.96
2022-08-30T10:36:15.967Z,30.83
2022-08-30T10:38:50.088Z,31.17
2022-08-30T10:41:26.126Z,31.89
2022-08-30T10:43:59.905Z,32.17
2022-08-30T10:46:37.270Z,32.75
2022-08-30T10:49:10.097Z,33.20
2022-08-30T10:51:43.359Z,32.04
2022-08-30T10:54:18.685Z,29.48
2022-08-30T10:56:51.619Z,27.29
2022-08-30T10:59:20.650Z,25.86
2022-08-30T11:02:22.046Z,23.93
2022-08-30T11:05:17.994Z,22.54
2022-08-30T11:07:58.175Z,22.06
2022-08-30T11:10:38.849Z,21.77
2022-08-30T11:13:12.024Z,21.41
2022-08-30T11:16:00.830Z,22.10
2022-08-30T11:18:33.494Z,22.56
2022-08-30T11:21:36.271Z,22.99
2022-08-30T11:24:11.486Z,23.29
2022-08-30T11:27:01.415Z,23.36
2022-08-30T11:29:33.310Z,23.65
2022-08-30T11:32:23.341Z,23.64
2022-08-30T11:35:00.690Z,23.18
2022-08-30T11:37:35.995Z,22.60
2022-08-30T11:40:07.592Z,21.93
2022-08-30T11:42:45.784Z,21.16
2022-08-30T11:45:44.585Z,20.68
2022-08-30T11:48:55.251Z,20.22
2022-08-30T11:52:26.934Z,19.72
2022-08-30T11:55:03.711Z,19.66
2022-08-30T11:57:46.504Z,19.46
2022-08-30T12:00:31.354Z,19.68
2022-08-30T12:03:05.443Z,19.88
2022-08-30T12:05:58.956Z,19.66
2022-08-30T12:09:02.957Z,19.29
2022-08-30T12:11:59.648Z,19.20
2022-08-30T12:14:41.331Z,18.70
2022-08-30T12:17:36.113Z,18.53
2022-08-30T12:20:12.768Z,18.47
2022-08-30T12:22:40.684Z,18.71
2022-08-30T12:25:18.579Z,18.96
2022-08-30T12:27:48.475Z,19.13
2022-08-30T12:30:26.757Z,19.32
2022-08-30T12:32:55.710Z,19.41
2022-08-30T12:35:29.207Z,19.43
2022-08-30T12:38:01.477Z,19.57
2022-08-30T12:40:31.463Z,19.88
2022-08-30T12:43:04.862Z,19.85
2022-08-30T12:45:40.078Z,19.78
2022-08-30T12:48:11.142Z,19.61
2022-08-30T12:50:48.931Z,19.49
2022-08-30T12:53:25.561Z,19.43
2022-08-30T12:55:56.276Z,19.54
2022-08-30T12:58:43.721Z,19.62
2022-08-30T13:01:26.361Z,19.49
2022-08-30T13:03:59.737Z,19.67
2022-08-30T13:06:40.070Z,19.85
2022-08-30T13:09:09.450Z,19.85
2022-08-30T13:11:37.767Z,19.76
2022-08-30T13:14:33.044Z,19.68
2022-08-30T13:17:12.686Z,19.89
2022-08-30T13:19:43.389Z,20.16
2022-08-30T13:22:27.596Z,20.34
2022-08-30T13:24:56.382Z,20.57
2022-08-30T13:27:25.816Z,20.75
2022-08-30T13:29:55.582Z,20.86
2022-08-30T13:32:24.578Z,20.73
2022-08-30T13:34:52.668Z,20.73
2022-08-30T13:40:15.129Z,21.01
2022-08-30T13:42:46.653Z,20.95
2022-08-30T13:48:07.645Z,21.36
2022-08-30T13:50:35.597Z,21.33
2022-08-30T13:53:03.538Z,21.08
2022-08-30T13:55:31.585Z,21.00
2022-08-30T13:57:59.498Z,20.65
2022-08-30T14:00:33.580Z,20.38
2022-08-30T14:03:05.039Z,20.26
2022-08-30T14:06:04.935Z,20.20
2022-08-30T14:11:18.609Z,21.12
2022-08-30T14:16:40.374Z,24.47
2022-08-30T14:19:10.376Z,25.85
2022-08-30T14:21:38.916Z,27.14
2022-08-30T14:24:07.444Z,27.24
2022-08-30T14:26:37.825Z,27.50
2022-08-30T14:29:09.650Z,28.42
2022-08-30T14:31:40.013Z,28.90
2022-08-30T14:34:09.477Z,29.67
2022-08-30T14:36:41.322Z,30.04
2022-08-30T14:39:12.615Z,28.67
2022-08-30T14:41:44.385Z,27.32
2022-08-30T14:44:13.552Z,26.57
2022-08-30T14:46:43.431Z,25.22
2022-08-30T14:49:12.364Z,24.32
2022-08-30T14:51:41.954Z,24.00
2022-08-30T14:54:15.863Z,24.38
2022-08-30T14:56:44.962Z,24.95
2022-08-30T14:59:13.363Z,25.13
2022-08-30T15:01:43.914Z,24.23
2022-08-30T15:04:13.147Z,23.11
2022-08-30T15:06:43.098Z,22.18
2022-08-30T15:09:14.840Z,21.49
2022-08-30T15:11:44.649Z,21.38
2022-08-30T15:14:16.235Z,23.60
2022-08-30T15:16:46.253Z,26.26
2022-08-30T15:19:16.502Z,27.90
2022-08-30T15:21:46.605Z,28.82
2022-08-30T15:24:25.000Z,28.74
2022-08-30T15:27:03.892Z,27.20
2022-08-30T15:29:32.234Z,26.27
2022-08-30T15:32:03.670Z,24.68
2022-08-30T15:34:34.057Z,23.06
2022-08-30T15:37:07.779Z,21.89
2022-08-30T15:39:37.045Z,21.05
2022-08-30T15:42:06.168Z,20.28
2022-08-30T15:44:35.091Z,19.70
2022-08-30T15:47:08.038Z,19.61
2022-08-30T15:49:36.091Z,19.55
2022-08-30T15:52:09.350Z,19.43
2022-08-30T15:54:37.690Z,19.25
2022-08-30T15:57:06.068Z,19.55
2022-08-30T15:59:34.180Z,19.30
2022-08-30T16:02:02.319Z,19.05
2022-08-30T16:04:32.765Z,18.53
2022-08-30T16:07:00.976Z,18.43
2022-08-30T16:09:29.955Z,18.20
2022-08-30T16:12:00.981Z,18.38
2022-08-30T16:14:31.712Z,18.06
2022-08-30T16:17:04.139Z,18.03
2022-08-30T16:19:34.953Z,17.91
2022-08-30T16:22:03.608Z,17.88
2022-08-30T16:24:31.839Z,17.57
2022-08-30T16:27:00.133Z,17.41
2022-08-30T16:29:28.047Z,17.47
2022-08-30T16:31:57.693Z,17.34
2022-08-30T16:34:30.403Z,17.20
2022-08-30T16:37:03.053Z,16.86
2022-08-30T16:39:31.046Z,17.01
2022-08-30T16:42:03.098Z,16.92
2022-08-30T16:44:36.118Z,16.86
2022-08-30T16:47:12.760Z,16.75
2022-08-30T16:49:48.723Z,16.38
2022-08-30T16:52:19.957Z,16.29
2022-08-30T16:54:52.013Z,16.48
2022-08-30T16:57:20.786Z,16.27
2022-08-30T16:59:49.554Z,16.09
2022-08-30T17:02:20.578Z,16.33
2022-08-30T17:04:53.057Z,16.19
2022-08-30T17:07:22.973Z,16.03
2022-08-30T17:09:51.281Z,15.84
2022-08-30T17:12:19.399Z,15.62
2022-08-30T17:14:47.739Z,15.88
2022-08-30T17:17:16.648Z,15.67
2022-08-30T17:19:52.136Z,15.38
2022-08-30T17:22:21.432Z,15.43
2022-08-30T17:24:52.355Z,15.41
2022-08-30T17:27:21.170Z,15.43
2022-08-30T17:29:49.296Z,15.24
2022-08-30T17:32:17.197Z,15.17
2022-08-30T17:34:45.891Z,15.03
2022-08-30T17:37:14.636Z,15.07
2022-08-30T17:39:42.741Z,15.05
2022-08-30T17:42:12.219Z,15.07
2022-08-30T17:44:42.206Z,15.00
2022-08-30T17:47:13.197Z,14.90
2022-08-30T17:49:41.351Z,14.52
2022-08-30T17:52:11.477Z,14.65
2022-08-30T17:54:40.115Z,14.68
2022-08-30T17:57:10.956Z,14.74
2022-08-30T17:59:41.305Z,14.73
2022-08-30T18:05:00.172Z,14.61
2022-08-30T18:07:28.760Z,14.41
2022-08-30T18:09:56.669Z,14.61
2022-08-30T18:12:24.952Z,14.47
2022-08-30T18:14:56.382Z,14.29
2022-08-30T18:17:24.503Z,14.01
2022-08-30T18:19:53.310Z,14.27
2022-08-30T18:22:21.688Z,14.24
2022-08-30T18:24:49.714Z,14.20
2022-08-30T18:27:19.431Z,14.17
2022-08-30T18:29:47.596Z,14.11
2022-08-30T18:32:17.068Z,13.98
2022-08-30T18:34:46.003Z,13.95
2022-08-30T18:37:14.698Z,13.88
2022-08-30T18:39:45.143Z,13.74
2022-08-30T18:42:15.651Z,13.89
2022-08-30T18:44:43.901Z,13.86
2022-08-30T18:47:12.244Z,13.80
2022-08-30T18:49:41.693Z,13.75
2022-08-30T18:52:11.230Z,13.75
2022-08-30T18:54:41.203Z,13.67
2022-08-30T18:57:10.083Z,13.62
2022-08-30T18:59:38.494Z,13.71
2022-08-30T19:02:07.155Z,13.55
2022-08-30T19:04:37.638Z,13.50
2022-08-30T19:07:09.042Z,13.32
2022-08-30T19:09:37.780Z,13.35
2022-08-30T19:12:09.849Z,13.20
2022-08-30T19:14:40.334Z,13.22
2022-08-30T19:17:09.156Z,13.17
2022-08-30T19:19:46.469Z,13.13
2022-08-30T19:22:19.805Z,13.15
2022-08-30T19:24:49.737Z,13.16
2022-08-30T19:27:19.123Z,13.04
2022-08-30T19:29:53.649Z,12.96
2022-08-30T19:32:22.046Z,12.74
2022-08-30T19:34:50.651Z,12.89
2022-08-30T19:37:21.960Z,12.89
2022-08-30T19:39:49.960Z,12.87
2022-08-30T19:42:19.765Z,12.73
2022-08-30T19:44:53.655Z,12.70
2022-08-30T19:47:22.684Z,12.54
2022-08-30T19:49:50.863Z,12.57
2022-08-30T19:52:21.181Z,12.47
2022-08-30T19:54:49.071Z,12.25
2022-08-30T19:57:17.215Z,12.42
2022-08-30T19:59:45.493Z,12.43
2022-08-30T20:02:13.640Z,12.43
2022-08-30T20:04:42.584Z,12.36
2022-08-30T20:07:10.945Z,12.30
2022-08-30T20:09:40.550Z,12.30
2022-08-30T20:12:09.117Z,12.27
2022-08-30T20:14:37.100Z,12.26
2022-08-30T20:17:05.296Z,12.08
2022-08-30T20:19:40.028Z,12.14
2022-08-30T20:22:08.547Z,11.98
2022-08-30T20:24:26.895Z,14.69
2022-08-30T20:24:41.338Z,12.05
2022-08-30T20:27:13.387Z,12.02
2022-08-30T20:29:42.029Z,11.92
2022-08-30T20:32:09.999Z,11.93
2022-08-30T20:34:39.646Z,11.82
2022-08-30T20:37:10.100Z,11.68
2022-08-30T20:39:39.171Z,11.88
2022-08-30T20:42:07.812Z,11.82
2022-08-30T20:44:38.939Z,11.79
2022-08-30T20:47:07.325Z,11.79
2022-08-30T20:49:35.960Z,11.71
2022-08-30T20:52:04.768Z,11.57
2022-08-30T20:54:33.135Z,11.60
2022-08-30T20:57:01.029Z,11.74
2022-08-30T20:59:28.994Z,11.67
2022-08-30T21:02:00.160Z,11.51
2022-08-30T21:04:29.019Z,11.72
2022-08-30T21:06:56.895Z,11.70
2022-08-30T21:09:24.824Z,11.64
2022-08-30T21:11:54.039Z,11.67
2022-08-30T21:14:22.484Z,11.73
2022-08-30T21:16:51.079Z,11.58
2022-08-30T21:19:20.538Z,11.65
2022-08-30T21:21:48.559Z,11.59
2022-08-30T21:24:16.603Z,11.53
2022-08-30T21:26:44.686Z,11.61
2022-08-30T21:29:15.114Z,11.56
2022-08-30T21:31:43.304Z,11.33
2022-08-30T21:34:23.206Z,11.42
2022-08-30T21:36:51.814Z,11.45
2022-08-30T21:39:22.321Z,11.53
2022-08-30T21:41:53.027Z,11.51
2022-08-30T21:44:24.016Z,11.47
2022-08-30T21:46:53.496Z,11.42
2022-08-30T21:49:24.210Z,11.47
2022-08-30T21:51:55.299Z,11.47
2022-08-30T21:54:24.599Z,11.53
2022-08-30T21:57:01.312Z,11.52
2022-08-30T21:59:29.710Z,11.42
2022-08-30T22:01:59.096Z,11.48
2022-08-30T22:04:27.420Z,11.41
2022-08-30T22:06:56.907Z,11.39
2022-08-30T22:09:26.300Z,11.40
2022-08-30T22:11:54.969Z,11.43
2022-08-30T22:14:23.315Z,11.36
2022-08-30T22:16:51.643Z,11.33
2022-08-30T22:19:23.353Z,11.33
2022-08-30T22:21:52.099Z,11.44
2022-08-30T22:24:27.225Z,11.44
2022-08-30T22:26:59.978Z,11.33
2022-08-30T22:29:29.850Z,11.39
2022-08-30T22:31:57.755Z,11.35
2022-08-30T22:34:25.965Z,11.37
2022-08-30T22:36:54.123Z,11.32
2022-08-30T22:39:22.027Z,11.28
2022-08-30T22:41:51.495Z,11.38
2022-08-30T22:44:20.018Z,11.37
2022-08-30T22:46:47.883Z,11.19
2022-08-30T22:49:16.260Z,11.25
2022-08-30T22:51:44.421Z,11.24
2022-08-30T22:54:12.353Z,11.24
2022-08-30T22:56:41.815Z,11.19
2022-08-30T22:59:11.576Z,11.04
2022-08-30T23:01:42.767Z,11.14
2022-08-30T23:04:12.031Z,11.09
2022-08-30T23:06:40.317Z,11.08
2022-08-30T23:09:11.333Z,11.14
2022-08-30T23:11:40.128Z,11.11
2022-08-30T23:14:08.546Z,11.05
2022-08-30T23:16:38.038Z,11.15
2022-08-30T23:19:06.829Z,11.03
2022-08-30T23:21:34.860Z,11.15
2022-08-30T23:24:20.142Z,11.09
2022-08-30T23:27:05.982Z,11.05
2022-08-30T23:29:53.511Z,11.02
2022-08-30T23:32:40.981Z,10.97
2022-08-30T23:35:30.249Z,10.99
2022-08-30T23:38:16.472Z,11.02
2022-08-30T23:41:01.854Z,10.88
2022-08-30T23:43:47.623Z,10.99
2022-08-30T23:46:38.785Z,10.96
2022-08-30T23:49:25.338Z,10.89
2022-08-30T23:52:10.748Z,10.84
2022-08-30T23:54:57.384Z,10.72
2022-08-30T23:57:43.904Z,10.65
